sensor_id;sensor_type;location;lat;lon;timestamp;temperature;humidity
60287;DHT22;46141;52.382;5.270;2022-11-20T00:01:13;19.10;64.50
60287;DHT22;46141;52.382;5.270;2022-11-20T00:03:39;19.10;64.50
60287;DHT22;46141;52.382;5.270;2022-11-20T00:06:07;19.10;64.40
60287;DHT22;46141;52.382;5.270;2022-11-20T00:08:33;19.10;64.30
60287;DHT22;46141;52.382;5.270;2022-11-20T00:11:04;19.10;64.30
60287;DHT22;46141;52.382;5.270;2022-11-20T00:13:30;19.00;64.30
60287;DHT22;46141;52.382;5.270;2022-11-20T00:15:57;19.00;64.90
60287;DHT22;46141;52.382;5.270;2022-11-20T00:18:24;19.00;64.20
60287;DHT22;46141;52.382;5.270;2022-11-20T00:20:49;19.00;64.10
60287;DHT22;46141;52.382;5.270;2022-11-20T00:23:15;19.00;64.20
60287;DHT22;46141;52.382;5.270;2022-11-20T00:25:41;19.00;64.10
60287;DHT22;46141;52.382;5.270;2022-11-20T00:28:06;19.00;64.10
60287;DHT22;46141;52.382;5.270;2022-11-20T00:30:32;19.00;64.10
60287;DHT22;46141;52.382;5.270;2022-11-20T00:32:58;19.00;64.10
60287;DHT22;46141;52.382;5.270;2022-11-20T00:35:24;19.00;64.20
60287;DHT22;46141;52.382;5.270;2022-11-20T00:37:49;19.00;64.10
60287;DHT22;46141;52.382;5.270;2022-11-20T00:40:15;19.00;64.10
60287;DHT22;46141;52.382;5.270;2022-11-20T00:42:41;18.90;64.10
60287;DHT22;46141;52.382;5.270;2022-11-20T00:45:07;18.90;64.10
60287;DHT22;46141;52.382;5.270;2022-11-20T00:47:33;18.90;64.10
60287;DHT22;46141;52.382;5.270;2022-11-20T00:49:58;18.90;64.20
60287;DHT22;46141;52.382;5.270;2022-11-20T00:52:24;18.90;64.20
60287;DHT22;46141;52.382;5.270;2022-11-20T00:54:50;18.90;64.20
60287;DHT22;46141;52.382;5.270;2022-11-20T00:57:16;18.90;64.20
60287;DHT22;46141;52.382;5.270;2022-11-20T00:59:42;18.90;64.10
60287;DHT22;46141;52.382;5.270;2022-11-20T01:02:08;18.90;64.00
60287;DHT22;46141;52.382;5.270;2022-11-20T01:04:33;18.90;64.10
60287;DHT22;46141;52.382;5.270;2022-11-20T01:06:59;18.90;64.00
60287;DHT22;46141;52.382;5.270;2022-11-20T01:09:24;18.90;64.00
60287;DHT22;46141;52.382;5.270;2022-11-20T01:11:51;18.90;64.10
60287;DHT22;46141;52.382;5.270;2022-11-20T01:14:18;18.90;64.00
60287;DHT22;46141;52.382;5.270;2022-11-20T01:16:50;18.90;64.10
60287;DHT22;46141;52.382;5.270;2022-11-20T01:19:21;18.90;64.10
60287;DHT22;46141;52.382;5.270;2022-11-20T01:21:51;18.80;64.00
60287;DHT22;46141;52.382;5.270;2022-11-20T01:24:19;18.80;64.00
60287;DHT22;46141;52.382;5.270;2022-11-20T01:26:48;18.80;64.00
60287;DHT22;46141;52.382;5.270;2022-11-20T01:29:19;18.80;64.00
60287;DHT22;46141;52.382;5.270;2022-11-20T01:31:45;18.80;64.00
60287;DHT22;46141;52.382;5.270;2022-11-20T01:34:17;18.80;64.00
60287;DHT22;46141;52.382;5.270;2022-11-20T01:36:45;18.80;64.00
60287;DHT22;46141;52.382;5.270;2022-11-20T01:39:17;18.80;64.00
60287;DHT22;46141;52.382;5.270;2022-11-20T01:41:44;18.80;64.00
60287;DHT22;46141;52.382;5.270;2022-11-20T01:47:17;18.80;64.00
60287;DHT22;46141;52.382;5.270;2022-11-20T01:49:50;18.80;64.00
60287;DHT22;46141;52.382;5.270;2022-11-20T01:52:21;18.80;64.00
60287;DHT22;46141;52.382;5.270;2022-11-20T01:55:00;18.80;64.00
60287;DHT22;46141;52.382;5.270;2022-11-20T01:57:30;18.80;64.00
60287;DHT22;46141;52.382;5.270;2022-11-20T02:00:18;18.80;64.00
60287;DHT22;46141;52.382;5.270;2022-11-20T02:02:53;18.80;63.90
60287;DHT22;46141;52.382;5.270;2022-11-20T02:05:53;18.80;63.80
60287;DHT22;46141;52.382;5.270;2022-11-20T02:08:21;18.80;63.90
60287;DHT22;46141;52.382;5.270;2022-11-20T02:10:47;18.80;64.00
60287;DHT22;46141;52.382;5.270;2022-11-20T02:13:13;18.80;63.90
60287;DHT22;46141;52.382;5.270;2022-11-20T02:15:57;18.80;63.90
60287;DHT22;46141;52.382;5.270;2022-11-20T02:18:23;18.80;63.90
60287;DHT22;46141;52.382;5.270;2022-11-20T02:20:58;18.80;63.80
60287;DHT22;46141;52.382;5.270;2022-11-20T02:26:15;18.80;63.80
60287;DHT22;46141;52.382;5.270;2022-11-20T02:28:41;18.80;63.70
60287;DHT22;46141;52.382;5.270;2022-11-20T02:31:07;18.80;63.70
60287;DHT22;46141;52.382;5.270;2022-11-20T02:33:33;18.80;63.70
60287;DHT22;46141;52.382;5.270;2022-11-20T02:35:59;18.80;63.70
60287;DHT22;46141;52.382;5.270;2022-11-20T02:38:24;18.80;63.70
60287;DHT22;46141;52.382;5.270;2022-11-20T02:40:50;18.80;63.70
60287;DHT22;46141;52.382;5.270;2022-11-20T02:43:16;18.80;63.70
60287;DHT22;46141;52.382;5.270;2022-11-20T02:45:42;18.80;63.60
60287;DHT22;46141;52.382;5.270;2022-11-20T02:48:08;18.80;63.60
60287;DHT22;46141;52.382;5.270;2022-11-20T02:50:36;18.80;63.60
60287;DHT22;46141;52.382;5.270;2022-11-20T02:53:02;18.80;63.50
60287;DHT22;46141;52.382;5.270;2022-11-20T02:55:28;18.80;63.50
60287;DHT22;46141;52.382;5.270;2022-11-20T02:57:53;18.80;63.60
60287;DHT22;46141;52.382;5.270;2022-11-20T03:00:19;18.80;63.50
60287;DHT22;46141;52.382;5.270;2022-11-20T03:02:45;18.80;63.50
60287;DHT22;46141;52.382;5.270;2022-11-20T03:05:11;18.80;63.50
60287;DHT22;46141;52.382;5.270;2022-11-20T03:07:36;18.80;63.60
60287;DHT22;46141;52.382;5.270;2022-11-20T03:10:03;18.80;63.50
60287;DHT22;46141;52.382;5.270;2022-11-20T03:12:28;18.80;63.50
60287;DHT22;46141;52.382;5.270;2022-11-20T03:14:54;18.80;63.40
60287;DHT22;46141;52.382;5.270;2022-11-20T03:17:20;18.80;63.40
60287;DHT22;46141;52.382;5.270;2022-11-20T03:19:46;18.80;63.40
60287;DHT22;46141;52.382;5.270;2022-11-20T03:22:13;18.80;63.40
60287;DHT22;46141;52.382;5.270;2022-11-20T03:24:38;18.80;63.30
60287;DHT22;46141;52.382;5.270;2022-11-20T03:27:04;18.80;63.30
60287;DHT22;46141;52.382;5.270;2022-11-20T03:29:29;18.70;63.30
60287;DHT22;46141;52.382;5.270;2022-11-20T03:31:55;18.80;63.30
60287;DHT22;46141;52.382;5.270;2022-11-20T03:34:21;18.70;63.20
60287;DHT22;46141;52.382;5.270;2022-11-20T03:36:47;18.80;63.20
60287;DHT22;46141;52.382;5.270;2022-11-20T03:39:13;18.80;63.20
60287;DHT22;46141;52.382;5.270;2022-11-20T03:41:41;18.80;63.20
60287;DHT22;46141;52.382;5.270;2022-11-20T03:44:09;18.80;63.20
60287;DHT22;46141;52.382;5.270;2022-11-20T03:46:35;18.80;63.20
60287;DHT22;46141;52.382;5.270;2022-11-20T03:49:01;18.80;63.10
60287;DHT22;46141;52.382;5.270;2022-11-20T03:51:32;18.80;63.20
60287;DHT22;46141;52.382;5.270;2022-11-20T03:54:00;18.80;63.20
60287;DHT22;46141;52.382;5.270;2022-11-20T03:56:29;18.70;63.10
60287;DHT22;46141;52.382;5.270;2022-11-20T03:58:55;18.80;63.20
60287;DHT22;46141;52.382;5.270;2022-11-20T04:01:25;18.80;63.20
60287;DHT22;46141;52.382;5.270;2022-11-20T04:03:55;18.80;63.20
60287;DHT22;46141;52.382;5.270;2022-11-20T04:06:30;18.80;63.20
60287;DHT22;46141;52.382;5.270;2022-11-20T04:08:58;18.80;63.00
60287;DHT22;46141;52.382;5.270;2022-11-20T04:11:29;18.80;63.10
60287;DHT22;46141;52.382;5.270;2022-11-20T04:14:01;18.80;63.10
60287;DHT22;46141;52.382;5.270;2022-11-20T04:16:30;18.80;63.00
60287;DHT22;46141;52.382;5.270;2022-11-20T04:19:00;18.80;63.60
60287;DHT22;46141;52.382;5.270;2022-11-20T04:21:26;18.80;63.00
60287;DHT22;46141;52.382;5.270;2022-11-20T04:23:53;18.80;63.00
60287;DHT22;46141;52.382;5.270;2022-11-20T04:26:20;18.80;63.00
60287;DHT22;46141;52.382;5.270;2022-11-20T04:28:46;18.80;63.00
60287;DHT22;46141;52.382;5.270;2022-11-20T04:31:15;18.80;63.10
60287;DHT22;46141;52.382;5.270;2022-11-20T04:33:42;18.70;62.80
60287;DHT22;46141;52.382;5.270;2022-11-20T04:36:14;18.70;62.80
60287;DHT22;46141;52.382;5.270;2022-11-20T04:38:40;18.70;62.80
60287;DHT22;46141;52.382;5.270;2022-11-20T04:41:09;18.70;62.80
60287;DHT22;46141;52.382;5.270;2022-11-20T04:43:38;18.70;62.80
60287;DHT22;46141;52.382;5.270;2022-11-20T04:46:04;18.70;62.80
60287;DHT22;46141;52.382;5.270;2022-11-20T04:48:30;18.70;62.70
60287;DHT22;46141;52.382;5.270;2022-11-20T04:50:56;18.70;62.60
60287;DHT22;46141;52.382;5.270;2022-11-20T04:53:22;18.70;62.60
60287;DHT22;46141;52.382;5.270;2022-11-20T04:55:48;18.70;62.50
60287;DHT22;46141;52.382;5.270;2022-11-20T04:58:15;18.70;62.50
60287;DHT22;46141;52.382;5.270;2022-11-20T05:00:41;18.70;62.40
60287;DHT22;46141;52.382;5.270;2022-11-20T05:03:07;18.70;62.40
60287;DHT22;46141;52.382;5.270;2022-11-20T05:05:34;18.70;62.40
60287;DHT22;46141;52.382;5.270;2022-11-20T05:08:00;18.70;62.40
60287;DHT22;46141;52.382;5.270;2022-11-20T05:10:27;18.70;62.30
60287;DHT22;46141;52.382;5.270;2022-11-20T05:12:53;18.70;62.40
60287;DHT22;46141;52.382;5.270;2022-11-20T05:15:19;18.70;62.40
60287;DHT22;46141;52.382;5.270;2022-11-20T05:17:50;18.60;62.20
60287;DHT22;46141;52.382;5.270;2022-11-20T05:20:16;18.70;62.20
60287;DHT22;46141;52.382;5.270;2022-11-20T05:22:44;18.70;62.10
60287;DHT22;46141;52.382;5.270;2022-11-20T05:25:11;18.60;62.10
60287;DHT22;46141;52.382;5.270;2022-11-20T05:27:37;18.70;62.00
60287;DHT22;46141;52.382;5.270;2022-11-20T05:30:07;18.70;62.10
60287;DHT22;46141;52.382;5.270;2022-11-20T05:32:34;18.70;62.00
60287;DHT22;46141;52.382;5.270;2022-11-20T05:35:00;18.70;62.10
60287;DHT22;46141;52.382;5.270;2022-11-20T05:37:25;18.70;61.90
60287;DHT22;46141;52.382;5.270;2022-11-20T05:39:52;18.70;62.00
60287;DHT22;46141;52.382;5.270;2022-11-20T05:42:17;18.70;61.90
60287;DHT22;46141;52.382;5.270;2022-11-20T05:45:00;18.60;61.70
60287;DHT22;46141;52.382;5.270;2022-11-20T05:47:26;18.70;61.80
60287;DHT22;46141;52.382;5.270;2022-11-20T05:49:52;18.70;61.80
60287;DHT22;46141;52.382;5.270;2022-11-20T05:52:18;18.60;61.60
60287;DHT22;46141;52.382;5.270;2022-11-20T05:54:44;18.70;61.70
60287;DHT22;46141;52.382;5.270;2022-11-20T05:57:09;18.70;61.80
60287;DHT22;46141;52.382;5.270;2022-11-20T05:59:35;18.60;60.90
60287;DHT22;46141;52.382;5.270;2022-11-20T06:02:00;18.70;61.50
60287;DHT22;46141;52.382;5.270;2022-11-20T06:04:27;18.60;61.70
60287;DHT22;46141;52.382;5.270;2022-11-20T06:06:53;18.70;61.80
60287;DHT22;46141;52.382;5.270;2022-11-20T06:09:18;18.60;61.70
60287;DHT22;46141;52.382;5.270;2022-11-20T06:11:44;18.60;61.80
60287;DHT22;46141;52.382;5.270;2022-11-20T06:14:10;18.70;61.90
60287;DHT22;46141;52.382;5.270;2022-11-20T06:16:36;18.70;61.90
60287;DHT22;46141;52.382;5.270;2022-11-20T06:19:02;18.70;62.00
60287;DHT22;46141;52.382;5.270;2022-11-20T06:21:28;18.70;62.20
60287;DHT22;46141;52.382;5.270;2022-11-20T06:23:53;18.70;61.30
60287;DHT22;46141;52.382;5.270;2022-11-20T06:26:22;18.60;60.10
60287;DHT22;46141;52.382;5.270;2022-11-20T06:28:49;18.60;59.80
60287;DHT22;46141;52.382;5.270;2022-11-20T06:31:17;18.60;60.80
60287;DHT22;46141;52.382;5.270;2022-11-20T06:33:43;18.70;61.40
60287;DHT22;46141;52.382;5.270;2022-11-20T06:36:12;18.60;61.30
60287;DHT22;46141;52.382;5.270;2022-11-20T06:38:39;18.70;61.40
60287;DHT22;46141;52.382;5.270;2022-11-20T06:41:06;18.60;61.30
60287;DHT22;46141;52.382;5.270;2022-11-20T06:43:31;18.70;61.50
60287;DHT22;46141;52.382;5.270;2022-11-20T06:45:58;18.70;61.50
60287;DHT22;46141;52.382;5.270;2022-11-20T06:48:26;18.70;61.50
60287;DHT22;46141;52.382;5.270;2022-11-20T06:50:52;18.70;61.60
60287;DHT22;46141;52.382;5.270;2022-11-20T06:53:18;18.70;62.20
60287;DHT22;46141;52.382;5.270;2022-11-20T06:55:46;18.70;61.50
60287;DHT22;46141;52.382;5.270;2022-11-20T06:58:13;18.70;61.50
60287;DHT22;46141;52.382;5.270;2022-11-20T07:00:39;18.70;61.60
60287;DHT22;46141;52.382;5.270;2022-11-20T07:03:06;18.70;61.50
60287;DHT22;46141;52.382;5.270;2022-11-20T07:05:32;18.70;61.60
60287;DHT22;46141;52.382;5.270;2022-11-20T07:07:58;18.70;61.60
60287;DHT22;46141;52.382;5.270;2022-11-20T07:10:25;18.70;61.50
60287;DHT22;46141;52.382;5.270;2022-11-20T07:12:52;18.70;61.50
60287;DHT22;46141;52.382;5.270;2022-11-20T07:15:19;18.70;61.50
60287;DHT22;46141;52.382;5.270;2022-11-20T07:17:46;18.70;61.50
60287;DHT22;46141;52.382;5.270;2022-11-20T07:20:12;18.70;61.50
60287;DHT22;46141;52.382;5.270;2022-11-20T07:22:39;18.70;61.40
60287;DHT22;46141;52.382;5.270;2022-11-20T07:25:05;18.70;61.40
60287;DHT22;46141;52.382;5.270;2022-11-20T07:27:31;18.70;60.70
60287;DHT22;46141;52.382;5.270;2022-11-20T07:29:57;18.70;60.40
60287;DHT22;46141;52.382;5.270;2022-11-20T07:32:23;18.70;60.50
60287;DHT22;46141;52.382;5.270;2022-11-20T07:34:48;18.70;60.80
60287;DHT22;46141;52.382;5.270;2022-11-20T07:37:14;18.70;61.00
60287;DHT22;46141;52.382;5.270;2022-11-20T07:39:41;18.60;60.70
60287;DHT22;46141;52.382;5.270;2022-11-20T07:42:07;18.70;60.90
60287;DHT22;46141;52.382;5.270;2022-11-20T07:44:33;18.70;61.00
60287;DHT22;46141;52.382;5.270;2022-11-20T07:46:59;18.70;61.10
60287;DHT22;46141;52.382;5.270;2022-11-20T07:49:25;18.70;61.10
60287;DHT22;46141;52.382;5.270;2022-11-20T07:51:51;18.70;61.00
60287;DHT22;46141;52.382;5.270;2022-11-20T07:54:19;18.70;60.60
60287;DHT22;46141;52.382;5.270;2022-11-20T07:56:45;18.70;60.90
60287;DHT22;46141;52.382;5.270;2022-11-20T07:59:11;18.70;61.00
60287;DHT22;46141;52.382;5.270;2022-11-20T08:01:41;18.70;61.10
60287;DHT22;46141;52.382;5.270;2022-11-20T08:04:07;18.70;61.00
60287;DHT22;46141;52.382;5.270;2022-11-20T08:06:34;18.70;61.00
60287;DHT22;46141;52.382;5.270;2022-11-20T08:08:59;18.80;61.20
60287;DHT22;46141;52.382;5.270;2022-11-20T08:11:25;18.80;61.00
60287;DHT22;46141;52.382;5.270;2022-11-20T08:14:09;18.80;61.10
60287;DHT22;46141;52.382;5.270;2022-11-20T08:16:46;18.80;61.10
60287;DHT22;46141;52.382;5.270;2022-11-20T08:19:14;18.80;61.10
60287;DHT22;46141;52.382;5.270;2022-11-20T08:21:40;18.70;61.00
60287;DHT22;46141;52.382;5.270;2022-11-20T08:24:07;18.80;61.00
60287;DHT22;46141;52.382;5.270;2022-11-20T08:26:33;18.80;61.00
60287;DHT22;46141;52.382;5.270;2022-11-20T08:28:59;18.80;61.10
60287;DHT22;46141;52.382;5.270;2022-11-20T08:31:26;18.80;61.00
60287;DHT22;46141;52.382;5.270;2022-11-20T08:33:53;18.80;60.90
60287;DHT22;46141;52.382;5.270;2022-11-20T08:36:20;18.80;60.80
60287;DHT22;46141;52.382;5.270;2022-11-20T08:38:53;18.80;60.80
60287;DHT22;46141;52.382;5.270;2022-11-20T08:41:20;18.80;60.70
60287;DHT22;46141;52.382;5.270;2022-11-20T08:43:49;18.80;60.90
60287;DHT22;46141;52.382;5.270;2022-11-20T08:46:16;18.80;61.50
60287;DHT22;46141;52.382;5.270;2022-11-20T08:48:42;18.80;60.80
60287;DHT22;46141;52.382;5.270;2022-11-20T08:51:08;18.80;60.70
60287;DHT22;46141;52.382;5.270;2022-11-20T08:53:34;18.80;60.60
60287;DHT22;46141;52.382;5.270;2022-11-20T08:55:59;18.80;60.20
60287;DHT22;46141;52.382;5.270;2022-11-20T08:58:25;18.80;59.90
60287;DHT22;46141;52.382;5.270;2022-11-20T09:00:52;18.80;59.40
60287;DHT22;46141;52.382;5.270;2022-11-20T09:03:18;18.80;59.40
60287;DHT22;46141;52.382;5.270;2022-11-20T09:05:44;18.80;59.70
60287;DHT22;46141;52.382;5.270;2022-11-20T09:08:10;18.80;60.70
60287;DHT22;46141;52.382;5.270;2022-11-20T09:10:35;18.80;60.70
60287;DHT22;46141;52.382;5.270;2022-11-20T09:13:02;18.80;60.40
60287;DHT22;46141;52.382;5.270;2022-11-20T09:15:28;18.80;60.50
60287;DHT22;46141;52.382;5.270;2022-11-20T09:17:56;18.80;60.20
60287;DHT22;46141;52.382;5.270;2022-11-20T09:20:22;18.80;60.40
60287;DHT22;46141;52.382;5.270;2022-11-20T09:22:48;18.80;60.40
60287;DHT22;46141;52.382;5.270;2022-11-20T09:25:14;18.80;60.70
60287;DHT22;46141;52.382;5.270;2022-11-20T09:27:40;18.80;60.30
60287;DHT22;46141;52.382;5.270;2022-11-20T09:30:09;18.90;60.50
60287;DHT22;46141;52.382;5.270;2022-11-20T09:32:35;18.90;60.70
60287;DHT22;46141;52.382;5.270;2022-11-20T09:35:01;18.90;60.10
60287;DHT22;46141;52.382;5.270;2022-11-20T09:37:27;19.00;60.10
60287;DHT22;46141;52.382;5.270;2022-11-20T09:39:53;19.00;60.00
60287;DHT22;46141;52.382;5.270;2022-11-20T09:42:39;19.00;60.10
60287;DHT22;46141;52.382;5.270;2022-11-20T09:47:52;19.10;60.20
60287;DHT22;46141;52.382;5.270;2022-11-20T09:50:36;19.20;60.20
60287;DHT22;46141;52.382;5.270;2022-11-20T09:53:25;19.20;60.20
60287;DHT22;46141;52.382;5.270;2022-11-20T09:55:55;19.20;60.20
60287;DHT22;46141;52.382;5.270;2022-11-20T09:58:44;19.30;60.10
60287;DHT22;46141;52.382;5.270;2022-11-20T10:01:16;19.30;60.20
60287;DHT22;46141;52.382;5.270;2022-11-20T10:04:12;19.30;60.10
60287;DHT22;46141;52.382;5.270;2022-11-20T10:06:46;19.40;60.30
60287;DHT22;46141;52.382;5.270;2022-11-20T10:09:25;19.40;60.40
60287;DHT22;46141;52.382;5.270;2022-11-20T10:14:35;19.50;60.60
60287;DHT22;46141;52.382;5.270;2022-11-20T10:20:02;19.60;61.40
60287;DHT22;46141;52.382;5.270;2022-11-20T10:25:20;19.70;61.90
60287;DHT22;46141;52.382;5.270;2022-11-20T10:30:20;19.70;61.10
60287;DHT22;46141;52.382;5.270;2022-11-20T10:33:09;19.70;62.60
60287;DHT22;46141;52.382;5.270;2022-11-20T10:38:18;19.80;62.30
60287;DHT22;46141;52.382;5.270;2022-11-20T10:40:51;19.90;62.40
60287;DHT22;46141;52.382;5.270;2022-11-20T10:43:32;19.90;62.20
60287;DHT22;46141;52.382;5.270;2022-11-20T10:46:00;19.90;62.90
60287;DHT22;46141;52.382;5.270;2022-11-20T10:48:28;19.90;62.60
60287;DHT22;46141;52.382;5.270;2022-11-20T10:56:46;19.90;62.10
60287;DHT22;46141;52.382;5.270;2022-11-20T11:02:23;20.00;61.20
60287;DHT22;46141;52.382;5.270;2022-11-20T11:04:53;20.00;61.80
60287;DHT22;46141;52.382;5.270;2022-11-20T11:07:30;20.00;62.10
60287;DHT22;46141;52.382;5.270;2022-11-20T11:09:57;20.00;61.90
60287;DHT22;46141;52.382;5.270;2022-11-20T11:12:28;20.00;62.60
60287;DHT22;46141;52.382;5.270;2022-11-20T11:14:57;20.00;62.20
60287;DHT22;46141;52.382;5.270;2022-11-20T11:17:32;20.00;62.20
60287;DHT22;46141;52.382;5.270;2022-11-20T11:22:24;20.00;62.10
60287;DHT22;46141;52.382;5.270;2022-11-20T11:24:53;20.00;61.90
60287;DHT22;46141;52.382;5.270;2022-11-20T11:27:19;20.00;62.00
60287;DHT22;46141;52.382;5.270;2022-11-20T11:29:45;20.00;61.50
60287;DHT22;46141;52.382;5.270;2022-11-20T11:32:18;20.00;61.60
60287;DHT22;46141;52.382;5.270;2022-11-20T11:34:44;20.00;62.10
60287;DHT22;46141;52.382;5.270;2022-11-20T11:37:18;20.00;61.50
60287;DHT22;46141;52.382;5.270;2022-11-20T11:39:48;20.00;61.50
60287;DHT22;46141;52.382;5.270;2022-11-20T11:42:18;20.00;61.00
60287;DHT22;46141;52.382;5.270;2022-11-20T11:44:47;20.00;61.10
60287;DHT22;46141;52.382;5.270;2022-11-20T11:55:44;20.00;61.00
60287;DHT22;46141;52.382;5.270;2022-11-20T12:00:58;20.00;60.90
60287;DHT22;46141;52.382;5.270;2022-11-20T12:03:35;20.00;61.00
60287;DHT22;46141;52.382;5.270;2022-11-20T12:06:13;20.00;61.00
60287;DHT22;46141;52.382;5.270;2022-11-20T12:08:53;20.00;61.80
60287;DHT22;46141;52.382;5.270;2022-11-20T12:16:46;20.00;61.70
60287;DHT22;46141;52.382;5.270;2022-11-20T12:19:14;20.10;61.90
60287;DHT22;46141;52.382;5.270;2022-11-20T12:24:45;20.10;62.60
60287;DHT22;46141;52.382;5.270;2022-11-20T12:30:16;20.10;62.60
60287;DHT22;46141;52.382;5.270;2022-11-20T12:33:27;20.10;62.50
60287;DHT22;46141;52.382;5.270;2022-11-20T12:47:49;20.10;62.40
60287;DHT22;46141;52.382;5.270;2022-11-20T12:56:05;20.10;62.40
60287;DHT22;46141;52.382;5.270;2022-11-20T13:01:38;20.10;62.40
60287;DHT22;46141;52.382;5.270;2022-11-20T13:06:44;20.10;62.30
60287;DHT22;46141;52.382;5.270;2022-11-20T13:09:15;20.10;62.60
60287;DHT22;46141;52.382;5.270;2022-11-20T13:19:22;20.10;62.30
60287;DHT22;46141;52.382;5.270;2022-11-20T13:21:49;20.10;63.00
60287;DHT22;46141;52.382;5.270;2022-11-20T13:26:44;20.10;62.40
60287;DHT22;46141;52.382;5.270;2022-11-20T13:29:20;20.00;62.40
60287;DHT22;46141;52.382;5.270;2022-11-20T13:31:47;20.10;62.50
60287;DHT22;46141;52.382;5.270;2022-11-20T13:34:24;20.00;62.40
60287;DHT22;46141;52.382;5.270;2022-11-20T13:36:56;20.00;62.40
60287;DHT22;46141;52.382;5.270;2022-11-20T13:39:34;20.00;62.50
60287;DHT22;46141;52.382;5.270;2022-11-20T13:44:44;20.10;62.50
60287;DHT22;46141;52.382;5.270;2022-11-20T13:47:23;20.00;62.40
60287;DHT22;46141;52.382;5.270;2022-11-20T13:49:51;20.00;62.40
60287;DHT22;46141;52.382;5.270;2022-11-20T13:58:43;20.00;62.40
60287;DHT22;46141;52.382;5.270;2022-11-20T14:00:50;20.00;62.40
60287;DHT22;46141;52.382;5.270;2022-11-20T14:03:21;20.00;62.30
60287;DHT22;46141;52.382;5.270;2022-11-20T14:05:55;20.00;62.90
60287;DHT22;46141;52.382;5.270;2022-11-20T14:08:38;20.10;62.30
60287;DHT22;46141;52.382;5.270;2022-11-20T14:11:18;20.00;62.40
60287;DHT22;46141;52.382;5.270;2022-11-20T14:14:13;20.00;62.40
60287;DHT22;46141;52.382;5.270;2022-11-20T14:16:40;20.10;62.20
60287;DHT22;46141;52.382;5.270;2022-11-20T14:21:48;20.00;62.30
60287;DHT22;46141;52.382;5.270;2022-11-20T14:24:20;20.00;62.30
60287;DHT22;46141;52.382;5.270;2022-11-20T14:26:46;20.10;62.40
60287;DHT22;46141;52.382;5.270;2022-11-20T14:29:27;20.10;62.40
60287;DHT22;46141;52.382;5.270;2022-11-20T14:31:55;20.00;62.30
60287;DHT22;46141;52.382;5.270;2022-11-20T14:34:25;20.00;63.00
60287;DHT22;46141;52.382;5.270;2022-11-20T14:37:00;20.00;62.30
60287;DHT22;46141;52.382;5.270;2022-11-20T14:41:55;20.10;62.30
60287;DHT22;46141;52.382;5.270;2022-11-20T14:44:32;20.00;62.30
60287;DHT22;46141;52.382;5.270;2022-11-20T14:47:01;20.10;62.00
60287;DHT22;46141;52.382;5.270;2022-11-20T14:49:31;20.10;62.20
60287;DHT22;46141;52.382;5.270;2022-11-20T14:52:20;20.00;62.20
60287;DHT22;46141;52.382;5.270;2022-11-20T14:54:48;20.00;62.30
60287;DHT22;46141;52.382;5.270;2022-11-20T15:00:23;20.10;62.30
60287;DHT22;46141;52.382;5.270;2022-11-20T15:02:51;20.10;62.30
60287;DHT22;46141;52.382;5.270;2022-11-20T15:05:20;20.00;62.20
60287;DHT22;46141;52.382;5.270;2022-11-20T15:08:03;20.10;62.40
60287;DHT22;46141;52.382;5.270;2022-11-20T15:10:29;20.10;62.30
60287;DHT22;46141;52.382;5.270;2022-11-20T15:13:03;20.00;62.30
60287;DHT22;46141;52.382;5.270;2022-11-20T15:15:47;20.10;63.00
60287;DHT22;46141;52.382;5.270;2022-11-20T15:18:18;20.10;62.10
60287;DHT22;46141;52.382;5.270;2022-11-20T15:20:44;20.10;62.30
60287;DHT22;46141;52.382;5.270;2022-11-20T15:23:18;20.10;62.40
60287;DHT22;46141;52.382;5.270;2022-11-20T15:25:45;20.10;62.50
60287;DHT22;46141;52.382;5.270;2022-11-20T15:28:35;20.10;63.20
60287;DHT22;46141;52.382;5.270;2022-11-20T15:31:02;20.10;62.60
60287;DHT22;46141;52.382;5.270;2022-11-20T15:33:29;20.00;62.50
60287;DHT22;46141;52.382;5.270;2022-11-20T15:35:56;20.00;62.50
60287;DHT22;46141;52.382;5.270;2022-11-20T15:38:22;20.00;62.50
60287;DHT22;46141;52.382;5.270;2022-11-20T15:40:48;20.10;62.60
60287;DHT22;46141;52.382;5.270;2022-11-20T15:43:13;20.10;62.60
60287;DHT22;46141;52.382;5.270;2022-11-20T15:45:51;20.00;62.50
60287;DHT22;46141;52.382;5.270;2022-11-20T15:48:21;20.10;62.50
60287;DHT22;46141;52.382;5.270;2022-11-20T15:50:58;20.10;62.50
60287;DHT22;46141;52.382;5.270;2022-11-20T15:53:24;20.10;62.50
60287;DHT22;46141;52.382;5.270;2022-11-20T15:55:50;20.10;62.30
60287;DHT22;46141;52.382;5.270;2022-11-20T15:58:16;20.10;62.20
60287;DHT22;46141;52.382;5.270;2022-11-20T16:00:45;20.10;62.30
60287;DHT22;46141;52.382;5.270;2022-11-20T16:03:12;20.10;62.40
60287;DHT22;46141;52.382;5.270;2022-11-20T16:05:38;20.10;62.40
60287;DHT22;46141;52.382;5.270;2022-11-20T16:08:04;20.10;62.40
60287;DHT22;46141;52.382;5.270;2022-11-20T16:10:30;20.10;62.40
60287;DHT22;46141;52.382;5.270;2022-11-20T16:12:56;20.10;61.40
60287;DHT22;46141;52.382;5.270;2022-11-20T16:15:40;20.10;62.20
60287;DHT22;46141;52.382;5.270;2022-11-20T16:18:15;20.00;62.30
60287;DHT22;46141;52.382;5.270;2022-11-20T16:20:42;20.10;62.20
60287;DHT22;46141;52.382;5.270;2022-11-20T16:23:07;20.10;62.20
60287;DHT22;46141;52.382;5.270;2022-11-20T16:25:33;20.10;62.20
60287;DHT22;46141;52.382;5.270;2022-11-20T16:27:59;20.10;62.10
60287;DHT22;46141;52.382;5.270;2022-11-20T16:30:25;20.10;62.10
60287;DHT22;46141;52.382;5.270;2022-11-20T16:32:53;20.10;62.10
60287;DHT22;46141;52.382;5.270;2022-11-20T16:35:19;20.10;62.20
60287;DHT22;46141;52.382;5.270;2022-11-20T16:37:45;20.00;61.50
60287;DHT22;46141;52.382;5.270;2022-11-20T16:40:11;20.10;61.30
60287;DHT22;46141;52.382;5.270;2022-11-20T16:42:37;20.10;61.20
60287;DHT22;46141;52.382;5.270;2022-11-20T16:45:04;20.10;61.70
60287;DHT22;46141;52.382;5.270;2022-11-20T16:47:34;20.00;61.80
60287;DHT22;46141;52.382;5.270;2022-11-20T16:50:00;20.00;61.80
60287;DHT22;46141;52.382;5.270;2022-11-20T16:52:26;20.10;62.00
60287;DHT22;46141;52.382;5.270;2022-11-20T16:54:52;20.10;62.20
60287;DHT22;46141;52.382;5.270;2022-11-20T16:57:18;20.10;62.30
60287;DHT22;46141;52.382;5.270;2022-11-20T16:59:43;20.10;62.30
60287;DHT22;46141;52.382;5.270;2022-11-20T17:02:09;20.10;62.40
60287;DHT22;46141;52.382;5.270;2022-11-20T17:04:36;20.20;62.70
60287;DHT22;46141;52.382;5.270;2022-11-20T17:07:01;20.10;63.50
60287;DHT22;46141;52.382;5.270;2022-11-20T17:09:28;20.10;63.90
60287;DHT22;46141;52.382;5.270;2022-11-20T17:11:54;20.10;64.20
60287;DHT22;46141;52.382;5.270;2022-11-20T17:14:20;20.20;64.10
60287;DHT22;46141;52.382;5.270;2022-11-20T17:16:46;20.40;67.10
60287;DHT22;46141;52.382;5.270;2022-11-20T17:19:13;20.50;66.80
60287;DHT22;46141;52.382;5.270;2022-11-20T17:21:40;20.50;66.60
60287;DHT22;46141;52.382;5.270;2022-11-20T17:24:11;20.50;66.50
60287;DHT22;46141;52.382;5.270;2022-11-20T17:26:39;20.50;66.30